Brockway, Montana
Current Conditions -  °F | °C
As of 7:15 PM on Thursday 18 Dec 2014 (Local Time) from KGDV Reporting Station
Overcast Overcast  
Wind Chill: -7°   Ceiling: 11000
Heat Index: -2°   Visibility: 10mi
Dew Point: -4°   Wind: 9mph
Humidity: 86%   Direction: 210°SSW
Pressure: 29.93"   Gusts: NA
Location:  47.3°N, 105.77°W
Report Text: KGDV 190215Z AUTO 21008KT 10SM OVC110 M02/M04 A2993 RMK AO1
Loading
Personal Weather Stations






























Interactive Weather Map New forecast layout! Learn more

10-Day Weather Forecast

Advertisements
Track Severe Weather on mobile